Time;durP1;ratioP1;P1;durP2;ratioP2;P2;SDS_P1;SDS_P2;PMS_P1;PMS_P2;Temp;Humidity;BMP_temperature;BMP_pressure;BME280_temperature;BME280_humidity;BME280_pressure;Samples;Min_cycle;Max_cycle;Signal;HPM_P1;HPM_P2
2023/04/05 00:01:29;;;;;;;7.93;6.28;;;;;;;;;;5029172;28;20537;-81
2023/04/05 00:03:57;;;;;;;8.55;6.47;;;;;;;;;;5020301;28;20425;-82
2023/04/05 00:06:30;;;;;;;7.75;6.32;;;;;;;;;;5056303;28;20431;-82
2023/04/05 00:08:59;;;;;;;6.82;6.13;;;;;;;;;;5056270;28;20499;-82
2023/04/05 00:11:26;;;;;;;8.10;6.30;;;;;;;;;;5037186;28;20434;-82
2023/04/05 00:13:52;;;;;;;7.22;6.10;;;;;;;;;;5015090;28;20507;-82
2023/04/05 00:16:19;;;;;;;9.70;6.32;;;;;;;;;;5035201;28;20411;-82
2023/04/05 00:18:48;;;;;;;11.20;6.68;;;;;;;;;;5056281;28;20422;-82
2023/04/05 00:21:21;;;;;;;7.40;6.23;;;;;;;;;;5037843;28;20424;-82
2023/04/05 00:23:50;;;;;;;9.10;6.40;;;;;;;;;;5055476;28;20427;-77
2023/04/05 00:26:16;;;;;;;7.72;6.60;;;;;;;;;;5037951;28;20416;-77
2023/04/05 00:28:42;;;;;;;7.43;5.97;;;;;;;;;;5007943;28;20487;-77
2023/04/05 00:31:08;;;;;;;8.18;6.63;;;;;;;;;;5034952;28;20421;-78
2023/04/05 00:33:34;;;;;;;9.82;6.47;;;;;;;;;;5047889;28;20435;-77
2023/04/05 00:36:10;;;;;;;8.27;6.72;;;;;;;;;;5024465;28;20433;-78
2023/04/05 00:38:36;;;;;;;9.13;6.95;;;;;;;;;;5052243;28;20469;-82
2023/04/05 00:41:02;;;;;;;7.72;6.72;;;;;;;;;;5018573;28;20448;-82
2023/04/05 00:43:28;;;;;;;8.88;6.63;;;;;;;;;;5032637;28;20451;-82
2023/04/05 00:45:55;;;;;;;8.68;6.90;;;;;;;;;;5008020;28;20457;-82
2023/04/05 00:48:21;;;;;;;8.32;6.72;;;;;;;;;;5030710;28;20451;-82
2023/04/05 00:50:50;;;;;;;8.73;6.80;;;;;;;;;;5021343;28;20439;-82
2023/04/05 00:53:20;;;;;;;7.68;6.72;;;;;;;;;;5024852;28;20433;-82
2023/04/05 00:55:47;;;;;;;8.32;6.85;;;;;;;;;;5025899;28;20416;-82
2023/04/05 00:58:13;;;;;;;9.02;7.13;;;;;;;;;;5038034;28;20439;-82
2023/04/05 01:00:40;;;;;;;7.53;6.75;;;;;;;;;;5020696;28;20420;-82
2023/04/05 01:03:07;;;;;;;8.32;7.00;;;;;;;;;;5037218;28;20436;-82
2023/04/05 01:05:33;;;;;;;8.98;7.10;;;;;;;;;;5037090;28;20419;-82
2023/04/05 01:08:07;;;;;;;9.00;6.95;;;;;;;;;;5033875;28;20444;-82
2023/04/05 01:10:36;;;;;;;7.93;6.60;;;;;;;;;;5024924;28;20442;-82
2023/04/05 01:13:03;;;;;;;8.70;6.97;;;;;;;;;;5028315;28;20413;-82
2023/04/05 01:15:29;;;;;;;10.07;7.13;;;;;;;;;;5019964;28;20427;-82
2023/04/05 01:17:56;;;;;;;7.82;7.00;;;;;;;;;;5036863;28;20435;-82
2023/04/05 01:20:24;;;;;;;8.85;7.10;;;;;;;;;;5037826;28;20541;-82
2023/04/05 01:23:10;;;;;;;8.57;7.30;;;;;;;;;;5052328;28;20455;-82
2023/04/05 01:25:57;;;;;;;10.60;7.18;;;;;;;;;;5036392;28;20454;-82
2023/04/05 01:28:42;;;;;;;9.48;7.25;;;;;;;;;;5031526;28;20421;-79
2023/04/05 01:31:08;;;;;;;9.05;7.18;;;;;;;;;;5043495;28;20421;-79
2023/04/05 01:33:37;;;;;;;9.13;7.32;;;;;;;;;;5033214;28;20411;-79
2023/04/05 01:36:15;;;;;;;8.73;7.30;;;;;;;;;;5036833;28;20490;-79
2023/04/05 01:38:43;;;;;;;8.35;6.82;;;;;;;;;;5036642;28;20447;-79
2023/04/05 01:41:09;;;;;;;9.68;7.28;;;;;;;;;;5036709;28;20438;-79
2023/04/05 01:43:35;;;;;;;9.45;7.35;;;;;;;;;;5019537;28;20515;-78
2023/04/05 01:46:01;;;;;;;8.95;7.45;;;;;;;;;;5036362;28;20468;-77
2023/04/05 01:48:27;;;;;;;8.57;7.18;;;;;;;;;;5036760;28;20430;-77
2023/04/05 01:50:53;;;;;;;9.18;7.63;;;;;;;;;;5034995;28;20420;-77
2023/04/05 01:53:20;;;;;;;9.20;7.50;;;;;;;;;;5024882;28;20424;-77
2023/04/05 01:55:46;;;;;;;9.73;7.85;;;;;;;;;;5016651;28;20421;-77
2023/04/05 01:58:12;;;;;;;9.32;7.82;;;;;;;;;;5018426;28;20428;-77
2023/04/05 02:00:38;;;;;;;8.90;7.57;;;;;;;;;;5019922;28;20573;-78
2023/04/05 02:03:05;;;;;;;10.68;7.70;;;;;;;;;;5017177;28;20437;-82
2023/04/05 02:05:31;;;;;;;10.38;7.70;;;;;;;;;;5040724;28;20429;-83
2023/04/05 02:07:57;;;;;;;9.93;7.50;;;;;;;;;;5021004;28;20510;-83
2023/04/05 02:10:23;;;;;;;8.88;7.72;;;;;;;;;;5019871;28;20434;-82
2023/04/05 02:12:50;;;;;;;9.23;7.40;;;;;;;;;;5036226;28;20435;-82
2023/04/05 02:15:16;;;;;;;9.45;7.68;;;;;;;;;;5035634;28;20427;-82
2023/04/05 02:17:44;;;;;;;9.02;7.88;;;;;;;;;;5015996;28;20425;-83
2023/04/05 02:20:11;;;;;;;8.70;7.70;;;;;;;;;;5031385;28;20434;-82
2023/04/05 02:22:38;;;;;;;9.50;7.88;;;;;;;;;;5031321;28;20421;-82
2023/04/05 02:25:06;;;;;;;9.15;7.45;;;;;;;;;;5040382;28;20429;-81
2023/04/05 02:27:32;;;;;;;8.57;7.60;;;;;;;;;;5017768;28;20468;-82
2023/04/05 02:29:58;;;;;;;9.40;7.50;;;;;;;;;;5030966;28;20435;-82
2023/04/05 02:32:24;;;;;;;9.38;7.85;;;;;;;;;;5032046;28;20481;-82
2023/04/05 02:34:51;;;;;;;9.93;7.50;;;;;;;;;;5040053;28;20392;-82
2023/04/05 02:37:17;;;;;;;8.95;7.90;;;;;;;;;;5052328;28;20420;-83
2023/04/05 02:39:43;;;;;;;9.77;7.70;;;;;;;;;;5035732;28;20430;-83
2023/04/05 02:42:09;;;;;;;8.45;7.43;;;;;;;;;;5015691;28;20460;-83
2023/04/05 02:44:36;;;;;;;8.30;7.28;;;;;;;;;;5012656;28;20438;-83
2023/04/05 02:47:02;;;;;;;9.27;7.55;;;;;;;;;;5004184;28;20553;-83
2023/04/05 02:49:28;;;;;;;10.70;7.80;;;;;;;;;;5016297;28;20445;-82
2023/04/05 02:51:54;;;;;;;10.60;7.47;;;;;;;;;;5002941;28;20454;-78
2023/04/05 02:54:21;;;;;;;9.40;7.47;;;;;;;;;;5052552;28;20419;-78
2023/04/05 02:56:48;;;;;;;9.38;7.97;;;;;;;;;;5053079;28;20432;-77
2023/04/05 02:59:15;;;;;;;10.13;7.80;;;;;;;;;;5048521;28;20431;-78
2023/04/05 03:01:43;;;;;;;10.20;7.88;;;;;;;;;;5021963;28;20441;-78
2023/04/05 03:04:11;;;;;;;10.63;7.70;;;;;;;;;;5033359;28;20419;-78
2023/04/05 03:06:37;;;;;;;9.15;7.97;;;;;;;;;;5011383;28;20407;-77
2023/04/05 03:09:03;;;;;;;9.55;7.75;;;;;;;;;;5034020;28;20475;-82
2023/04/05 03:11:30;;;;;;;8.85;7.80;;;;;;;;;;5032277;28;20444;-82
2023/04/05 03:13:56;;;;;;;9.87;8.00;;;;;;;;;;5014910;28;20413;-83
2023/04/05 03:16:22;;;;;;;11.27;7.93;;;;;;;;;;5050350;28;20492;-83
2023/04/05 03:18:48;;;;;;;10.25;7.90;;;;;;;;;;5003669;28;20429;-82
2023/04/05 03:21:16;;;;;;;10.93;7.80;;;;;;;;;;5016112;28;20543;-83
2023/04/05 03:23:45;;;;;;;9.80;8.30;;;;;;;;;;5025673;28;20431;-83
2023/04/05 03:26:13;;;;;;;10.05;8.18;;;;;;;;;;5034859;28;20423;-78
2023/04/05 03:28:43;;;;;;;9.60;8.00;;;;;;;;;;5014622;28;20567;-78
2023/04/05 03:31:10;;;;;;;10.32;8.32;;;;;;;;;;5036383;28;20445;-78
2023/04/05 03:33:36;;;;;;;10.43;7.80;;;;;;;;;;5053994;28;20411;-78
2023/04/05 03:36:03;;;;;;;9.85;7.70;;;;;;;;;;5028310;28;20415;-78
2023/04/05 03:38:31;;;;;;;9.75;8.18;;;;;;;;;;5034932;28;20420;-78
2023/04/05 03:40:57;;;;;;;9.85;8.23;;;;;;;;;;5035308;28;20424;-78
2023/04/05 03:43:23;;;;;;;9.40;8.20;;;;;;;;;;5015130;28;20452;-79
2023/04/05 03:45:49;;;;;;;8.73;7.60;;;;;;;;;;5011167;28;20414;-80
2023/04/05 03:48:19;;;;;;;9.93;8.27;;;;;;;;;;5018624;28;20424;-80
2023/04/05 03:50:46;;;;;;;9.00;7.75;;;;;;;;;;5034603;28;20439;-79
2023/04/05 03:53:12;;;;;;;9.77;8.55;;;;;;;;;;5034008;28;20428;-79
2023/04/05 03:55:39;;;;;;;11.45;8.38;;;;;;;;;;5032896;28;20401;-80
2023/04/05 03:58:05;;;;;;;10.55;8.65;;;;;;;;;;5018777;28;20458;-80
2023/04/05 04:00:31;;;;;;;10.85;8.45;;;;;;;;;;5034672;28;20436;-82
2023/04/05 04:02:57;;;;;;;9.90;8.52;;;;;;;;;;5030460;28;20713;-82
2023/04/05 04:05:23;;;;;;;10.68;8.45;;;;;;;;;;5018625;28;20495;-82
2023/04/05 04:07:49;;;;;;;9.95;8.88;;;;;;;;;;5034879;28;20511;-83
2023/04/05 04:10:16;;;;;;;10.00;8.68;;;;;;;;;;5020428;28;20498;-83
2023/04/05 04:12:42;;;;;;;10.55;8.45;;;;;;;;;;5037769;28;20408;-83
2023/04/05 04:15:09;;;;;;;10.95;8.50;;;;;;;;;;5041694;28;20409;-78
2023/04/05 04:17:36;;;;;;;11.13;8.77;;;;;;;;;;5031044;28;20427;-79
2023/04/05 04:20:07;;;;;;;10.05;8.68;;;;;;;;;;5021786;28;20442;-78
2023/04/05 04:22:37;;;;;;;10.40;8.48;;;;;;;;;;5029224;28;20509;-78
2023/04/05 04:25:04;;;;;;;9.97;7.83;;;;;;;;;;5023294;28;20180;-78
2023/04/05 04:27:30;;;;;;;7.87;7.03;;;;;;;;;;5038823;28;20218;-79
2023/04/05 04:30:02;;;;;;;10.17;7.20;;;;;;;;;;5022004;28;20244;-78
2023/04/05 04:32:50;;;;;;;8.83;7.10;;;;;;;;;;5058859;28;20188;-78
2023/04/05 04:35:19;;;;;;;10.43;7.30;;;;;;;;;;5039387;28;20271;-78
2023/04/05 04:37:53;;;;;;;9.73;7.70;;;;;;;;;;5020062;28;20238;-78
2023/04/05 04:40:20;;;;;;;9.73;6.93;;;;;;;;;;5036066;28;20195;-78
2023/04/05 04:42:46;;;;;;;12.85;9.13;;;;;;;;;;5054807;28;20514;-78
2023/04/05 04:45:15;;;;;;;10.77;7.80;;;;;;;;;;5063787;22;20184;-80
2023/04/05 04:47:42;;;;;;;10.50;7.53;;;;;;;;;;5053161;28;20196;-80
2023/04/05 04:50:09;;;;;;;8.53;7.37;;;;;;;;;;5036084;28;20218;-80
2023/04/05 04:52:35;;;;;;;12.13;7.60;;;;;;;;;;5037298;28;20204;-80
2023/04/05 04:55:01;;;;;;;8.70;7.60;;;;;;;;;;5021569;28;20184;-80
2023/04/05 04:57:28;;;;;;;10.20;7.87;;;;;;;;;;5038757;28;20326;-80
2023/04/05 04:59:55;;;;;;;12.80;7.97;;;;;;;;;;5036242;28;20248;-79
2023/04/05 05:02:24;;;;;;;13.13;7.80;;;;;;;;;;5031457;28;20188;-80
2023/04/05 05:04:50;;;;;;;11.63;7.90;;;;;;;;;;5038412;28;20183;-80
2023/04/05 05:07:17;;;;;;;10.10;7.67;;;;;;;;;;5009851;28;20196;-80
2023/04/05 05:09:43;;;;;;;9.37;7.77;;;;;;;;;;5053619;28;20211;-80
2023/04/05 05:12:09;;;;;;;9.47;7.93;;;;;;;;;;5003557;28;20192;-80
2023/04/05 05:14:35;;;;;;;9.97;7.83;;;;;;;;;;5018804;28;20199;-83
2023/04/05 05:17:03;;;;;;;10.33;7.67;;;;;;;;;;5002065;28;20211;-83
2023/04/05 05:19:30;;;;;;;11.60;8.17;;;;;;;;;;5002394;28;20180;-83
2023/04/05 05:21:56;;;;;;;12.43;8.17;;;;;;;;;;5000945;28;20207;-78
2023/04/05 05:24:23;;;;;;;10.13;8.40;;;;;;;;;;5018217;28;20181;-78
2023/04/05 05:26:49;;;;;;;9.67;7.90;;;;;;;;;;5018008;28;20192;-78
2023/04/05 05:29:15;;;;;;;12.43;8.23;;;;;;;;;;5017621;28;20240;-78
2023/04/05 05:31:41;;;;;;;11.80;8.10;;;;;;;;;;5017806;28;20179;-78
2023/04/05 05:34:07;;;;;;;12.20;7.93;;;;;;;;;;5017968;28;20173;-78
2023/04/05 05:36:34;;;;;;;11.40;7.97;;;;;;;;;;5001926;28;20184;-78
2023/04/05 05:39:00;;;;;;;11.53;8.10;;;;;;;;;;5018309;28;20216;-82
2023/04/05 05:41:26;;;;;;;13.20;9.90;;;;;;;;;;5001380;28;20421;-82
2023/04/05 05:43:53;;;;;;;11.02;9.82;;;;;;;;;;5000957;28;20409;-82
2023/04/05 05:46:20;;;;;;;13.02;9.80;;;;;;;;;;5000582;28;20449;-82
2023/04/05 05:48:46;;;;;;;11.68;10.18;;;;;;;;;;5017531;28;20413;-82
2023/04/05 05:51:12;;;;;;;14.80;11.20;;;;;;;;;;5000759;28;20409;-82
2023/04/05 05:53:39;;;;;;;13.48;11.00;;;;;;;;;;5017296;28;20456;-82
2023/04/05 05:56:06;;;;;;;15.07;12.07;;;;;;;;;;5034493;28;20402;-80
2023/04/05 05:58:32;;;;;;;15.77;11.35;;;;;;;;;;5016948;28;20409;-79
2023/04/05 06:00:58;;;;;;;12.98;11.02;;;;;;;;;;5000369;28;20432;-80
2023/04/05 06:03:25;;;;;;;12.50;10.85;;;;;;;;;;5016908;28;20463;-80
2023/04/05 06:05:52;;;;;;;13.20;10.80;;;;;;;;;;5016997;28;20416;-80
2023/04/05 06:08:18;;;;;;;14.33;11.20;;;;;;;;;;5000545;28;20488;-79
2023/04/05 06:10:44;;;;;;;14.05;11.00;;;;;;;;;;5000082;28;20433;-80
2023/04/05 06:13:10;;;;;;;11.90;10.48;;;;;;;;;;5000375;28;20414;-79
2023/04/05 06:15:36;;;;;;;14.40;11.23;;;;;;;;;;5000072;28;20417;-80
2023/04/05 06:18:02;;;;;;;14.68;11.77;;;;;;;;;;5016359;28;20406;-79
2023/04/05 06:20:28;;;;;;;16.23;11.63;;;;;;;;;;5000306;28;20466;-80
2023/04/05 06:22:54;;;;;;;18.25;11.85;;;;;;;;;;5039071;28;20416;-79
2023/04/05 06:25:20;;;;;;;13.65;11.18;;;;;;;;;;5004400;28;20414;-80
2023/04/05 06:27:46;;;;;;;14.10;11.02;;;;;;;;;;5010245;28;20448;-77
2023/04/05 06:30:12;;;;;;;14.07;10.70;;;;;;;;;;4999907;28;20468;-82
2023/04/05 06:32:38;;;;;;;12.17;9.67;;;;;;;;;;5000738;28;20169;-83
2023/04/05 06:35:05;;;;;;;13.03;9.37;;;;;;;;;;5004874;28;20226;-83
2023/04/05 06:37:31;;;;;;;13.10;9.50;;;;;;;;;;5044698;28;20255;-82
2023/04/05 06:39:58;;;;;;;12.73;9.50;;;;;;;;;;5027471;28;20199;-83
2023/04/05 06:42:24;;;;;;;14.77;10.52;;;;;;;;;;5016348;28;20409;-82
2023/04/05 06:44:50;;;;;;;12.93;10.77;;;;;;;;;;5016192;28;20429;-83
2023/04/05 06:47:16;;;;;;;13.02;10.65;;;;;;;;;;5016168;28;20439;-81
2023/04/05 06:49:42;;;;;;;12.93;11.15;;;;;;;;;;5016021;28;20441;-81
2023/04/05 06:52:08;;;;;;;14.20;10.65;;;;;;;;;;5016620;28;20504;-81
2023/04/05 06:54:37;;;;;;;14.05;10.45;;;;;;;;;;5024555;28;20439;-81
2023/04/05 06:57:03;;;;;;;11.30;10.03;;;;;;;;;;5023723;28;20527;-81
2023/04/05 06:59:30;;;;;;;12.93;10.18;;;;;;;;;;5032303;28;20404;-81
2023/04/05 07:01:56;;;;;;;12.65;9.90;;;;;;;;;;5032418;28;20409;-81
2023/04/05 07:04:22;;;;;;;13.18;9.90;;;;;;;;;;5036616;28;20413;-81
2023/04/05 07:06:48;;;;;;;13.17;10.23;;;;;;;;;;5010045;28;20476;-81
2023/04/05 07:09:14;;;;;;;12.23;10.30;;;;;;;;;;5007307;28;20432;-81
2023/04/05 07:11:40;;;;;;;11.98;10.63;;;;;;;;;;5001180;28;20473;-82
2023/04/05 07:14:06;;;;;;;11.93;9.98;;;;;;;;;;5017000;28;20402;-82
2023/04/05 07:16:32;;;;;;;10.73;9.63;;;;;;;;;;5033121;28;20409;-81
2023/04/05 07:18:58;;;;;;;10.93;9.82;;;;;;;;;;5033334;28;20406;-81
2023/04/05 07:21:26;;;;;;;11.55;9.68;;;;;;;;;;4999891;28;20425;-81
2023/04/05 07:23:54;;;;;;;10.93;9.67;;;;;;;;;;4999215;28;20417;-81
2023/04/05 07:26:21;;;;;;;12.10;9.80;;;;;;;;;;5031892;28;20406;-81
2023/04/05 07:28:47;;;;;;;11.77;9.20;;;;;;;;;;5031916;28;20394;-82
2023/04/05 07:31:15;;;;;;;11.05;9.20;;;;;;;;;;4999690;28;20501;-81
2023/04/05 07:33:41;;;;;;;10.52;9.00;;;;;;;;;;5032954;28;20408;-81
2023/04/05 07:36:07;;;;;;;11.35;9.52;;;;;;;;;;5015710;28;20402;-82
2023/04/05 07:38:33;;;;;;;10.45;9.43;;;;;;;;;;5015369;28;20497;-81
2023/04/05 07:40:59;;;;;;;10.50;9.40;;;;;;;;;;4999368;28;20500;-82
2023/04/05 07:43:25;;;;;;;11.18;9.27;;;;;;;;;;4999548;28;20421;-81
2023/04/05 07:45:52;;;;;;;10.57;9.15;;;;;;;;;;5002537;28;20434;-82
2023/04/05 07:48:19;;;;;;;12.37;9.53;;;;;;;;;;5003300;28;20430;-82
2023/04/05 07:50:46;;;;;;;11.18;8.75;;;;;;;;;;5002968;28;20516;-82
2023/04/05 07:53:13;;;;;;;10.40;8.30;;;;;;;;;;5004164;28;20418;-79
2023/04/05 07:55:39;;;;;;;10.52;8.60;;;;;;;;;;5036687;28;20441;-79
2023/04/05 07:58:05;;;;;;;11.45;9.00;;;;;;;;;;5037845;28;20410;-79
2023/04/05 08:00:31;;;;;;;10.57;9.18;;;;;;;;;;5036999;28;20528;-79
2023/04/05 08:02:57;;;;;;;10.93;8.73;;;;;;;;;;5020130;28;20435;-79
2023/04/05 08:05:23;;;;;;;11.80;8.53;;;;;;;;;;5003779;28;20489;-79
2023/04/05 08:07:49;;;;;;;11.20;8.70;;;;;;;;;;5003851;28;20410;-79
2023/04/05 08:10:17;;;;;;;11.10;8.23;;;;;;;;;;5002807;28;20437;-77
2023/04/05 08:12:43;;;;;;;9.95;7.82;;;;;;;;;;5002916;28;20464;-77
2023/04/05 08:15:09;;;;;;;10.82;7.35;;;;;;;;;;5035340;28;20406;-77
2023/04/05 08:17:35;;;;;;;9.85;8.10;;;;;;;;;;5035340;28;20414;-77
2023/04/05 08:20:01;;;;;;;11.05;8.40;;;;;;;;;;5035051;28;20413;-77
2023/04/05 08:22:28;;;;;;;9.90;8.27;;;;;;;;;;5035362;28;20433;-77
2023/04/05 08:24:54;;;;;;;11.63;8.20;;;;;;;;;;5035555;28;20433;-77
2023/04/05 08:27:20;;;;;;;10.70;7.70;;;;;;;;;;5035158;28;20401;-81
2023/04/05 08:29:46;;;;;;;9.02;7.78;;;;;;;;;;5002158;28;20488;-82
2023/04/05 08:32:12;;;;;;;9.35;7.90;;;;;;;;;;5018747;28;20429;-82
2023/04/05 08:34:38;;;;;;;9.87;8.10;;;;;;;;;;5002590;28;20496;-82
2023/04/05 08:37:04;;;;;;;9.73;7.82;;;;;;;;;;5002397;28;20401;-82
2023/04/05 08:39:32;;;;;;;7.80;6.95;;;;;;;;;;5002360;28;20413;-83
2023/04/05 08:42:11;;;;;;;7.73;6.43;;;;;;;;;;5003101;28;20410;-79
2023/04/05 08:44:38;;;;;;;8.88;6.90;;;;;;;;;;5035923;28;20406;-79
2023/04/05 08:47:04;;;;;;;8.10;6.80;;;;;;;;;;5035519;28;20426;-79
2023/04/05 08:49:30;;;;;;;7.43;6.20;;;;;;;;;;5004071;28;20312;-79
2023/04/05 08:52:00;;;;;;;10.52;7.15;;;;;;;;;;5002715;28;20405;-79
2023/04/05 08:54:26;;;;;;;10.13;7.05;;;;;;;;;;5036528;28;20436;-79
2023/04/05 08:56:53;;;;;;;8.38;6.32;;;;;;;;;;5019517;28;20500;-79
2023/04/05 08:59:19;;;;;;;7.33;6.57;;;;;;;;;;5037615;28;20406;-82
2023/04/05 09:01:47;;;;;;;8.93;6.50;;;;;;;;;;5003582;28;20412;-83
2023/04/05 09:04:16;;;;;;;8.00;6.45;;;;;;;;;;5013624;28;20424;-82
2023/04/05 09:06:43;;;;;;;8.07;6.27;;;;;;;;;;5048296;28;20185;-82
2023/04/05 09:09:10;;;;;;;9.47;6.23;;;;;;;;;;5038355;28;20339;-83
2023/04/05 09:11:37;;;;;;;8.90;6.47;;;;;;;;;;5043051;28;20184;-82
2023/04/05 09:14:04;;;;;;;6.80;5.57;;;;;;;;;;5047115;28;20176;-83
2023/04/05 09:16:30;;;;;;;7.17;5.30;;;;;;;;;;5038941;28;20177;-78
2023/04/05 09:18:56;;;;;;;6.30;5.07;;;;;;;;;;5002732;28;20180;-78
2023/04/05 09:21:22;;;;;;;7.70;5.87;;;;;;;;;;5035215;28;20238;-78
2023/04/05 09:23:55;;;;;;;8.57;5.70;;;;;;;;;;5002773;28;20180;-79
2023/04/05 09:26:25;;;;;;;9.03;5.63;;;;;;;;;;5034932;28;20199;-78
2023/04/05 09:28:51;;;;;;;8.13;5.60;;;;;;;;;;5002081;28;20230;-78
2023/04/05 09:31:36;;;;;;;6.77;5.50;;;;;;;;;;5034955;28;20169;-79
2023/04/05 09:34:03;;;;;;;7.67;5.90;;;;;;;;;;5036181;28;20184;-80
2023/04/05 09:36:29;;;;;;;9.23;5.53;;;;;;;;;;5035755;28;20212;-80
2023/04/05 09:39:08;;;;;;;7.80;5.73;;;;;;;;;;5019366;28;20503;-79
2023/04/05 09:41:35;;;;;;;7.30;5.50;;;;;;;;;;5035571;28;20413;-80
2023/04/05 09:44:02;;;;;;;6.27;5.40;;;;;;;;;;5035604;28;20188;-80
2023/04/05 09:46:30;;;;;;;5.80;5.20;;;;;;;;;;5002885;28;20224;-80
2023/04/05 09:48:56;;;;;;;6.30;4.83;;;;;;;;;;5035554;28;20180;-78
2023/04/05 09:51:22;;;;;;;5.90;5.27;;;;;;;;;;5002870;28;20200;-78
2023/04/05 09:53:58;;;;;;;5.77;4.80;;;;;;;;;;5035431;28;20180;-78
2023/04/05 09:56:25;;;;;;;8.03;5.43;;;;;;;;;;5002491;28;20176;-79
2023/04/05 09:58:51;;;;;;;6.13;5.17;;;;;;;;;;5002618;28;20180;-79
2023/04/05 10:01:20;;;;;;;6.10;5.27;;;;;;;;;;5036440;28;20165;-79
2023/04/05 10:03:47;;;;;;;6.63;4.50;;;;;;;;;;5018650;28;20169;-79
2023/04/05 10:06:14;;;;;;;5.50;4.60;;;;;;;;;;5035728;28;20191;-79
2023/04/05 10:08:40;;;;;;;6.40;5.43;;;;;;;;;;5033425;28;20231;-79
2023/04/05 10:11:06;;;;;;;6.60;5.30;;;;;;;;;;5001917;28;20204;-79
2023/04/05 10:13:33;;;;;;;6.10;5.20;;;;;;;;;;5001891;28;20183;-79
2023/04/05 10:16:00;;;;;;;6.93;5.00;;;;;;;;;;5035177;28;20176;-79
2023/04/05 10:18:37;;;;;;;6.73;5.50;;;;;;;;;;5017781;28;20180;-79
2023/04/05 10:21:04;;;;;;;5.80;5.20;;;;;;;;;;5034600;28;20184;-79
2023/04/05 10:23:32;;;;;;;6.20;5.10;;;;;;;;;;5034436;28;20188;-79
2023/04/05 10:26:08;;;;;;;6.20;5.43;;;;;;;;;;5001700;28;20181;-78
2023/04/05 10:28:35;;;;;;;7.23;5.27;;;;;;;;;;5035432;28;20176;-78
2023/04/05 10:31:12;;;;;;;5.63;5.10;;;;;;;;;;5017934;28;20212;-78
2023/04/05 10:33:46;;;;;;;6.60;5.30;;;;;;;;;;5035693;28;20266;-78
2023/04/05 10:36:15;;;;;;;6.43;5.47;;;;;;;;;;5017992;28;20187;-78
2023/04/05 10:39:00;;;;;;;6.10;5.50;;;;;;;;;;5017277;28;20418;-83
2023/04/05 10:41:26;;;;;;;6.23;5.43;;;;;;;;;;5018426;28;20194;-83
2023/04/05 10:43:56;;;;;;;5.97;5.10;;;;;;;;;;5018155;28;20176;-84
2023/04/05 10:46:22;;;;;;;7.40;5.37;;;;;;;;;;5042451;22;20244;-82
2023/04/05 10:48:48;;;;;;;5.90;5.30;;;;;;;;;;5017325;28;20189;-82
2023/04/05 10:51:14;;;;;;;6.17;5.13;;;;;;;;;;5017272;28;20191;-82
2023/04/05 10:53:41;;;;;;;6.30;5.70;;;;;;;;;;5017349;28;20183;-82
2023/04/05 10:56:07;;;;;;;6.33;5.10;;;;;;;;;;5020603;28;20187;-83
2023/04/05 10:58:35;;;;;;;6.20;5.27;;;;;;;;;;5022842;28;20180;-83
2023/04/05 11:01:03;;;;;;;6.07;5.27;;;;;;;;;;5023908;28;20177;-82
2023/04/05 11:03:47;;;;;;;6.53;5.30;;;;;;;;;;5031382;28;20185;-82
2023/04/05 11:06:34;;;;;;;7.07;5.40;;;;;;;;;;5022169;28;20177;-82
2023/04/05 11:09:14;;;;;;;7.63;6.00;;;;;;;;;;5023840;28;20183;-82
2023/04/05 11:11:41;;;;;;;6.97;5.50;;;;;;;;;;5030592;28;20169;-82
2023/04/05 11:14:20;;;;;;;6.43;5.50;;;;;;;;;;5033520;28;20184;-81
2023/04/05 11:16:48;;;;;;;6.20;5.30;;;;;;;;;;5000677;28;20184;-80
2023/04/05 11:19:16;;;;;;;6.50;5.80;;;;;;;;;;5015717;28;20184;-82
2023/04/05 11:21:43;;;;;;;6.93;5.03;;;;;;;;;;5034539;28;20169;-82
2023/04/05 11:24:16;;;;;;;8.20;6.70;;;;;;;;;;5000950;28;20188;-81
2023/04/05 11:26:42;;;;;;;6.60;5.60;;;;;;;;;;5018499;28;20248;-82
2023/04/05 11:29:08;;;;;;;6.73;5.40;;;;;;;;;;5017716;28;20215;-84
2023/04/05 11:31:34;;;;;;;6.10;5.50;;;;;;;;;;5001962;28;20187;-83
2023/04/05 11:34:13;;;;;;;9.03;5.70;;;;;;;;;;5017579;28;20214;-84
2023/04/05 11:36:44;;;;;;;6.90;5.37;;;;;;;;;;5017097;28;20198;-83
2023/04/05 11:39:22;;;;;;;7.03;5.80;;;;;;;;;;5034113;28;20267;-83
2023/04/05 11:41:57;;;;;;;6.53;5.60;;;;;;;;;;5017223;28;20204;-84
2023/04/05 11:44:23;;;;;;;6.70;6.00;;;;;;;;;;5017150;28;20206;-84
2023/04/05 11:46:50;;;;;;;6.57;5.67;;;;;;;;;;5003395;28;20238;-84
2023/04/05 11:49:16;;;;;;;6.83;6.07;;;;;;;;;;5017364;28;20208;-83
2023/04/05 11:51:47;;;;;;;9.00;5.73;;;;;;;;;;5016831;28;20176;-83
2023/04/05 11:54:13;;;;;;;9.70;5.60;;;;;;;;;;5016851;28;20260;-84
2023/04/05 11:56:40;;;;;;;6.60;5.30;;;;;;;;;;5034351;28;20208;-83
2023/04/05 11:59:06;;;;;;;6.47;5.43;;;;;;;;;;5016707;28;20180;-83
2023/04/05 12:01:32;;;;;;;6.17;5.43;;;;;;;;;;5000458;28;20271;-83
2023/04/05 12:03:58;;;;;;;6.60;5.57;;;;;;;;;;5034080;28;20212;-78
2023/04/05 12:06:25;;;;;;;7.67;6.30;;;;;;;;;;5016520;28;20200;-78
2023/04/05 12:08:52;;;;;;;7.47;5.40;;;;;;;;;;5016102;28;20176;-78
2023/04/05 12:11:24;;;;;;;5.97;5.37;;;;;;;;;;5000307;28;20246;-78
2023/04/05 12:13:54;;;;;;;7.03;5.70;;;;;;;;;;5015997;28;20183;-78
2023/04/05 12:16:20;;;;;;;6.67;5.50;;;;;;;;;;5016073;28;20184;-78
2023/04/05 12:18:52;;;;;;;6.33;5.20;;;;;;;;;;5033644;28;20173;-84
2023/04/05 12:21:18;;;;;;;6.53;5.70;;;;;;;;;;5034091;28;20268;-84
2023/04/05 12:23:44;;;;;;;6.63;5.27;;;;;;;;;;5000027;28;20184;-83
2023/04/05 12:26:10;;;;;;;7.20;5.30;;;;;;;;;;5015967;28;20191;-83
2023/04/05 12:29:09;;;;;;;5.70;5.10;;;;;;;;;;5000047;28;20189;-84
2023/04/05 12:31:42;;;;;;;6.60;5.60;;;;;;;;;;4992633;28;20283;-83
2023/04/05 12:34:08;;;;;;;5.97;5.37;;;;;;;;;;5019604;28;20184;-83
2023/04/05 12:36:35;;;;;;;8.35;5.78;;;;;;;;;;5019526;28;20409;-83
2023/04/05 12:39:05;;;;;;;5.90;5.10;;;;;;;;;;5037059;28;20248;-83
2023/04/05 12:41:31;;;;;;;6.20;5.30;;;;;;;;;;5019683;28;20172;-83
2023/04/05 12:44:01;;;;;;;8.60;5.67;;;;;;;;;;5019504;28;20220;-83
2023/04/05 12:46:43;;;;;;;7.27;5.40;;;;;;;;;;5036542;28;20228;-83
2023/04/05 12:49:14;;;;;;;6.63;5.17;;;;;;;;;;5018896;28;20176;-84
2023/04/05 12:51:42;;;;;;;8.60;6.07;;;;;;;;;;5035777;28;20187;-84
2023/04/05 12:54:11;;;;;;;6.40;5.67;;;;;;;;;;5003137;28;20180;-83
2023/04/05 12:56:38;;;;;;;7.33;6.33;;;;;;;;;;5020010;28;20227;-84
2023/04/05 12:59:05;;;;;;;8.50;6.13;;;;;;;;;;5019152;28;20267;-84
2023/04/05 13:01:31;;;;;;;6.27;5.67;;;;;;;;;;5019715;28;20177;-82
2023/04/05 13:04:00;;;;;;;7.13;6.10;;;;;;;;;;5009660;28;20460;-83
2023/04/05 13:06:26;;;;;;;6.63;5.93;;;;;;;;;;5018774;28;20419;-83
2023/04/05 13:08:52;;;;;;;7.53;6.07;;;;;;;;;;5019312;28;20401;-84
2023/04/05 13:11:18;;;;;;;7.38;6.00;;;;;;;;;;5018593;28;20507;-83
2023/04/05 13:13:44;;;;;;;6.72;6.03;;;;;;;;;;5018440;28;20409;-83
2023/04/05 13:16:10;;;;;;;8.35;6.00;;;;;;;;;;5017831;28;20413;-83
2023/04/05 13:18:36;;;;;;;6.20;5.60;;;;;;;;;;5002906;28;20203;-84
2023/04/05 13:21:06;;;;;;;5.57;4.63;;;;;;;;;;5002438;28;20188;-84
2023/04/05 13:23:32;;;;;;;6.57;5.70;;;;;;;;;;5018847;28;20176;-84
2023/04/05 13:25:58;;;;;;;6.20;5.53;;;;;;;;;;5003013;28;20185;-84
2023/04/05 13:28:25;;;;;;;5.87;5.27;;;;;;;;;;5003224;28;20195;-84
2023/04/05 13:30:51;;;;;;;6.30;5.67;;;;;;;;;;5002524;28;20208;-83
2023/04/05 13:33:17;;;;;;;6.70;6.00;;;;;;;;;;5002503;28;20236;-83
2023/04/05 13:35:43;;;;;;;7.00;5.70;;;;;;;;;;5002411;28;20239;-83
2023/04/05 13:38:10;;;;;;;7.47;5.70;;;;;;;;;;5034875;28;20173;-84
2023/04/05 13:40:36;;;;;;;6.00;5.40;;;;;;;;;;5002710;28;20195;-84
2023/04/05 13:43:02;;;;;;;6.50;5.60;;;;;;;;;;5006984;28;20212;-81
2023/04/05 13:45:28;;;;;;;6.60;5.90;;;;;;;;;;5003638;28;20228;-82
2023/04/05 13:47:54;;;;;;;5.90;5.30;;;;;;;;;;5031250;28;20192;-81
2023/04/05 13:50:20;;;;;;;6.43;5.73;;;;;;;;;;5032623;28;20270;-80
2023/04/05 13:52:46;;;;;;;5.87;5.20;;;;;;;;;;5020275;28;20182;-82
2023/04/05 13:55:12;;;;;;;6.73;5.60;;;;;;;;;;5019093;28;20287;-82
2023/04/05 13:57:38;;;;;;;8.97;5.83;;;;;;;;;;5019027;28;20208;-82
2023/04/05 14:00:05;;;;;;;7.93;5.90;;;;;;;;;;5002146;28;20218;-80
2023/04/05 14:02:31;;;;;;;6.10;5.50;;;;;;;;;;5002362;28;20189;-80
2023/04/05 14:04:57;;;;;;;6.50;5.53;;;;;;;;;;5001481;28;20180;-80
2023/04/05 14:07:24;;;;;;;8.00;6.40;;;;;;;;;;5002089;28;20242;-79
2023/04/05 14:09:50;;;;;;;6.20;5.47;;;;;;;;;;5001709;28;20266;-80
2023/04/05 14:12:16;;;;;;;6.40;5.50;;;;;;;;;;5017960;28;20177;-80
2023/04/05 14:14:42;;;;;;;7.53;6.00;;;;;;;;;;5001338;28;20177;-80
2023/04/05 14:17:10;;;;;;;7.63;6.00;;;;;;;;;;5018063;28;20414;-79
2023/04/05 14:19:36;;;;;;;7.18;5.95;;;;;;;;;;5001129;28;20547;-80
2023/04/05 14:22:02;;;;;;;7.17;6.27;;;;;;;;;;5002176;28;20341;-80
2023/04/05 14:24:28;;;;;;;8.60;6.15;;;;;;;;;;5001336;28;20410;-80
2023/04/05 14:26:55;;;;;;;7.00;6.30;;;;;;;;;;5001008;28;20466;-80
2023/04/05 14:29:21;;;;;;;6.60;5.80;;;;;;;;;;5000885;28;20432;-80
2023/04/05 14:31:47;;;;;;;8.02;6.25;;;;;;;;;;5016600;28;20432;-82
2023/04/05 14:34:14;;;;;;;7.07;6.30;;;;;;;;;;5017687;28;20398;-82
2023/04/05 14:36:40;;;;;;;6.70;6.07;;;;;;;;;;5034384;28;20496;-81
2023/04/05 14:39:06;;;;;;;6.43;5.82;;;;;;;;;;5017251;28;20393;-82
2023/04/05 14:41:33;;;;;;;8.80;5.90;;;;;;;;;;5035531;28;20179;-82